Time;durP1;ratioP1;P1;durP2;ratioP2;P2;SDS_P1;SDS_P2;PMS_P1;PMS_P2;Temp;Humidity;BMP_temperature;BMP_pressure;BME280_temperature;BME280_humidity;BME280_pressure;Samples;Min_cycle;Max_cycle;Signal;HPM_P1;HPM_P2
2023/08/22 00:01:27;;;;;;;2.72;1.67;;;;;;;17.49;100.00;98832.00;5159125;27;20058;-53
2023/08/22 00:03:56;;;;;;;4.68;2.20;;;;;;;17.71;100.00;98874.81;5159392;27;20154;-53
2023/08/22 00:06:23;;;;;;;5.22;2.47;;;;;;;17.88;100.00;98826.66;5159248;27;20102;-52
2023/08/22 00:08:49;;;;;;;2.72;1.88;;;;;;;17.96;100.00;98773.81;5159169;27;20400;-58
2023/08/22 00:11:15;;;;;;;7.40;1.92;;;;;;;17.90;100.00;98775.53;5159167;27;20058;-54
2023/08/22 00:13:41;;;;;;;3.72;2.00;;;;;;;17.87;100.00;98802.91;5159052;27;20046;-56
2023/08/22 00:16:07;;;;;;;5.78;2.50;;;;;;;17.88;100.00;98773.19;5159253;27;20060;-53
2023/08/22 00:18:33;;;;;;;6.43;2.03;;;;;;;17.90;100.00;98800.50;5159361;27;20129;-55
2023/08/22 00:20:59;;;;;;;7.90;2.17;;;;;;;17.67;100.00;98857.47;5158740;27;20430;-57
2023/08/22 00:23:26;;;;;;;2.33;2.00;;;;;;;17.65;100.00;98963.22;5158758;27;20082;-57
2023/08/22 00:25:52;;;;;;;6.88;2.90;;;;;;;17.67;100.00;98942.63;5158529;27;20090;-55
2023/08/22 00:28:18;;;;;;;2.92;2.05;;;;;;;17.56;100.00;98976.84;5159021;27;20050;-55
2023/08/22 00:30:44;;;;;;;6.03;2.40;;;;;;;17.55;100.00;98964.16;5158931;27;20195;-54
2023/08/22 00:33:09;;;;;;;5.03;2.70;;;;;;;17.42;100.00;99049.03;5158670;27;20402;-52
2023/08/22 00:35:35;;;;;;;3.38;2.00;;;;;;;17.61;100.00;99026.25;5158878;27;20141;-53
2023/08/22 00:38:01;;;;;;;8.15;2.35;;;;;;;17.45;100.00;99066.84;5158715;27;20141;-52
2023/08/22 00:40:28;;;;;;;8.88;2.70;;;;;;;17.50;100.00;99102.44;5158836;27;20051;-57
2023/08/22 00:42:54;;;;;;;4.60;2.80;;;;;;;17.52;100.00;99095.25;5158587;27;20142;-53
2023/08/22 00:45:20;;;;;;;3.72;2.40;;;;;;;17.38;100.00;99079.56;5158890;27;20134;-57
2023/08/22 00:47:46;;;;;;;5.78;2.03;;;;;;;17.51;100.00;99115.06;5158366;27;20416;-57
2023/08/22 00:50:12;;;;;;;9.07;2.95;;;;;;;17.58;100.00;99095.59;5158855;27;20062;-58
2023/08/22 00:52:38;;;;;;;4.95;2.10;;;;;;;17.47;100.00;99111.56;5158356;27;20047;-53
2023/08/22 00:55:04;;;;;;;6.60;3.00;;;;;;;17.40;100.00;99174.16;5158840;27;20137;-54
2023/08/22 00:57:31;;;;;;;6.15;3.20;;;;;;;17.45;100.00;99149.97;5158194;27;20102;-55
2023/08/22 00:59:58;;;;;;;5.78;2.90;;;;;;;17.42;100.00;99199.47;5158444;27;20046;-55
2023/08/22 01:02:24;;;;;;;3.28;2.53;;;;;;;17.50;100.00;99177.25;5158272;27;20059;-55
2023/08/22 01:04:50;;;;;;;4.45;2.53;;;;;;;17.37;100.00;99244.28;5158406;27;20100;-57
2023/08/22 01:07:22;;;;;;;4.22;2.85;;;;;;;17.43;100.00;99219.69;5158225;27;20433;-57
2023/08/22 01:09:55;;;;;;;7.43;2.72;;;;;;;17.27;100.00;99249.91;5158254;27;20058;-52
2023/08/22 01:12:29;;;;;;;4.65;3.17;;;;;;;17.28;100.00;99252.25;5158481;27;20137;-59
2023/08/22 01:15:05;;;;;;;9.63;2.65;;;;;;;17.39;100.00;99264.06;5158148;27;20059;-54
2023/08/22 01:17:32;;;;;;;8.85;2.83;;;;;;;17.34;100.00;99258.16;5158470;27;20047;-53
2023/08/22 01:19:58;;;;;;;9.85;2.78;;;;;;;17.56;100.00;99251.25;5157930;27;20051;-51
2023/08/22 01:22:25;;;;;;;8.90;2.63;;;;;;;17.56;100.00;99228.25;5158158;27;20387;-55
2023/08/22 01:24:51;;;;;;;6.78;2.97;;;;;;;17.65;100.00;99207.16;5157995;27;20051;-52
2023/08/22 01:27:21;;;;;;;9.05;3.00;;;;;;;17.78;100.00;99178.97;5157852;27;20420;-59
2023/08/22 01:29:55;;;;;;;4.22;3.00;;;;;;;17.91;100.00;99134.84;5158210;27;20053;-57
2023/08/22 01:32:26;;;;;;;6.95;2.63;;;;;;;17.80;100.00;99138.53;5157856;27;20051;-52
2023/08/22 01:34:56;;;;;;;8.85;3.33;;;;;;;17.96;100.00;99090.00;5158429;27;20138;-52
2023/08/22 01:37:24;;;;;;;3.40;2.28;;;;;;;18.01;100.00;99057.03;5161420;27;20491;-53
2023/08/22 01:39:56;;;;;;;4.63;2.20;;;;;;;17.99;100.00;99076.06;5161912;27;20357;-55
2023/08/22 01:42:23;;;;;;;5.60;2.90;;;;;;;18.00;100.00;99049.94;5161548;27;20137;-52
2023/08/22 01:44:49;;;;;;;4.45;2.85;;;;;;;18.04;100.00;99005.50;5161341;27;20047;-57
2023/08/22 01:47:14;;;;;;;10.23;3.30;;;;;;;18.03;100.00;99031.66;5161645;27;20107;-56
2023/08/22 01:49:40;;;;;;;8.63;2.55;;;;;;;17.95;100.00;99038.50;5161571;27;20363;-53
2023/08/22 01:52:06;;;;;;;4.38;2.80;;;;;;;18.02;100.00;99043.94;5161383;27;20055;-55
2023/08/22 01:54:36;;;;;;;5.70;2.83;;;;;;;17.91;100.00;99055.19;5161241;27;20065;-59
2023/08/22 01:57:03;;;;;;;4.95;2.92;;;;;;;17.97;100.00;99136.75;5161572;27;20050;-56
2023/08/22 01:59:28;;;;;;;4.85;2.60;;;;;;;18.06;100.00;99066.88;5161259;27;20137;-55
2023/08/22 02:01:55;;;;;;;6.85;3.00;;;;;;;18.06;100.00;99051.03;5161441;27;20150;-55
2023/08/22 02:04:20;;;;;;;3.40;3.10;;;;;;;18.03;100.00;99064.97;5161238;27;20354;-57
2023/08/22 02:06:46;;;;;;;6.10;2.60;;;;;;;17.76;100.00;99070.41;5161428;27;20051;-58
2023/08/22 02:09:13;;;;;;;6.70;3.33;;;;;;;17.76;100.00;99217.38;5160945;27;20167;-58
2023/08/22 02:11:39;;;;;;;6.45;2.70;;;;;;;17.90;100.00;99202.63;5160927;27;20058;-58
2023/08/22 02:14:05;;;;;;;7.90;3.15;;;;;;;17.86;100.00;99214.53;5161169;27;20051;-59
2023/08/22 02:16:32;;;;;;;4.43;2.90;;;;;;;18.03;100.00;99162.03;5161180;27;20142;-59
2023/08/22 02:18:58;;;;;;;3.40;3.10;;;;;;;17.86;100.00;99150.75;5160892;27;20403;-54
2023/08/22 02:21:24;;;;;;;4.53;2.58;;;;;;;17.92;100.00;99169.69;5160733;27;20146;-55
2023/08/22 02:23:50;;;;;;;3.92;2.50;;;;;;;17.96;100.00;99181.53;5161129;27;20093;-56
2023/08/22 02:26:16;;;;;;;5.65;2.63;;;;;;;17.81;100.00;99187.25;5160867;27;20055;-57
2023/08/22 02:28:42;;;;;;;4.93;2.67;;;;;;;17.68;100.00;99197.25;5161078;27;20057;-59
2023/08/22 02:31:09;;;;;;;2.60;2.40;;;;;;;17.93;100.00;99237.84;5160559;27;20138;-58
2023/08/22 02:33:34;;;;;;;7.68;2.72;;;;;;;17.87;100.00;99195.91;5160943;27;20053;-58
2023/08/22 02:36:00;;;;;;;6.80;2.97;;;;;;;17.92;100.00;99208.50;5160618;27;20082;-58
2023/08/22 02:38:27;;;;;;;8.65;2.80;;;;;;;17.83;100.00;99217.34;5160929;27;20444;-55
2023/08/22 02:40:53;;;;;;;3.80;2.85;;;;;;;17.86;100.00;99242.25;5160400;27;20396;-57
2023/08/22 02:43:19;;;;;;;6.32;3.60;;;;;;;17.80;100.00;99221.72;5160884;27;20042;-55
2023/08/22 02:45:45;;;;;;;6.53;2.85;;;;;;;17.71;100.00;99287.94;5160442;27;20051;-53
2023/08/22 02:48:11;;;;;;;4.13;3.00;;;;;;;17.80;100.00;99282.72;5159879;27;20055;-51
2023/08/22 02:50:37;;;;;;;4.80;3.38;;;;;;;17.79;100.00;99280.34;5160273;27;20063;-53
2023/08/22 02:53:04;;;;;;;5.13;3.30;;;;;;;17.80;100.00;99291.03;5160476;27;20093;-51
2023/08/22 02:55:31;;;;;;;8.75;3.60;;;;;;;17.72;100.00;99283.94;5160483;27;20043;-53
2023/08/22 02:57:57;;;;;;;5.45;2.90;;;;;;;17.80;100.00;99299.38;5160310;27;20057;-55
2023/08/22 03:00:23;;;;;;;10.80;3.03;;;;;;;17.85;100.00;99287.03;5160585;27;20042;-53
2023/08/22 03:02:49;;;;;;;9.25;2.97;;;;;;;17.92;100.00;99264.75;5159823;27;20054;-53
2023/08/22 03:05:16;;;;;;;6.03;3.58;;;;;;;17.83;100.00;99265.28;5160335;27;20100;-52
2023/08/22 03:07:42;;;;;;;4.63;3.10;;;;;;;17.84;100.00;99266.84;5159985;27;20055;-55
2023/08/22 03:10:08;;;;;;;8.13;3.00;;;;;;;17.87;100.00;99282.66;5160522;27;20047;-51
2023/08/22 03:12:35;;;;;;;4.80;4.07;;;;;;;17.75;100.00;99282.34;5159932;27;20096;-55
2023/08/22 03:15:02;;;;;;;5.55;3.42;;;;;;;17.73;100.00;99287.53;5160118;27;20444;-58
2023/08/22 03:17:28;;;;;;;8.23;4.22;;;;;;;17.66;100.00;99310.56;5160185;27;20050;-57
2023/08/22 03:19:54;;;;;;;6.43;3.38;;;;;;;17.60;100.00;99326.84;5160026;27;20134;-59
2023/08/22 03:22:21;;;;;;;4.00;2.92;;;;;;;17.64;100.00;99343.44;5160174;27;20043;-58
2023/08/22 03:24:46;;;;;;;4.72;3.40;;;;;;;17.68;100.00;99343.41;5159927;27;20089;-59
2023/08/22 03:27:12;;;;;;;6.68;3.45;;;;;;;17.76;100.00;99329.13;5159922;27;20409;-57
2023/08/22 03:29:38;;;;;;;3.97;3.13;;;;;;;17.75;100.00;99335.81;5159811;27;20137;-57
2023/08/22 03:32:05;;;;;;;3.33;3.03;;;;;;;17.72;100.00;99335.84;5160152;27;20231;-55
2023/08/22 03:34:31;;;;;;;9.45;3.20;;;;;;;17.72;100.00;99335.84;5159631;27;20335;-59
2023/08/22 03:36:56;;;;;;;4.70;3.15;;;;;;;17.71;100.00;99348.91;5160074;27;20137;-59
2023/08/22 03:39:23;;;;;;;4.57;3.28;;;;;;;17.72;100.00;99356.03;5159477;27;20077;-58
2023/08/22 03:41:49;;;;;;;7.13;3.35;;;;;;;17.49;100.00;99337.19;5159884;27;20061;-59
2023/08/22 03:44:15;;;;;;;4.60;2.90;;;;;;;17.69;100.00;99373.47;5159810;27;20319;-58
2023/08/22 03:46:41;;;;;;;5.90;3.03;;;;;;;17.85;100.00;99354.38;5159468;27;20110;-58
2023/08/22 03:49:07;;;;;;;6.75;3.58;;;;;;;17.86;100.00;99317.13;5159692;27;20093;-55
2023/08/22 03:51:32;;;;;;;5.43;3.92;;;;;;;17.84;100.00;99307.66;5159577;27;20137;-53
2023/08/22 03:53:58;;;;;;;4.70;3.42;;;;;;;17.69;100.00;99322.78;5159690;27;20046;-55
2023/08/22 03:56:25;;;;;;;4.55;3.25;;;;;;;17.49;100.00;99350.28;5159353;27;20051;-54
2023/08/22 03:58:51;;;;;;;4.97;3.50;;;;;;;17.56;100.00;99337.16;5158450;27;20050;-54
2023/08/22 04:01:17;;;;;;;5.85;3.83;;;;;;;17.61;100.00;99361.66;5159201;27;20114;-54
2023/08/22 04:03:43;;;;;;;5.35;3.13;;;;;;;17.57;100.00;99366.47;5159552;27;20078;-54
2023/08/22 04:06:08;;;;;;;6.60;5.07;;;;;;;17.51;100.00;99356.22;5159151;27;20146;-55
2023/08/22 04:08:35;;;;;;;6.43;4.75;;;;;;;17.54;100.00;99386.66;5159532;27;20050;-58
2023/08/22 04:11:01;;;;;;;7.13;3.63;;;;;;;17.57;100.00;99387.84;5158963;27;20115;-55
2023/08/22 04:13:27;;;;;;;5.93;4.15;;;;;;;17.68;100.00;99379.44;5159237;27;20055;-57
2023/08/22 04:15:53;;;;;;;9.63;3.10;;;;;;;17.84;100.00;99338.16;5159314;27;20085;-55
2023/08/22 04:18:19;;;;;;;5.28;3.50;;;;;;;17.84;100.00;99296.56;5159160;27;20412;-57
2023/08/22 04:20:45;;;;;;;4.90;3.42;;;;;;;17.70;100.00;99324.38;5158929;27;20153;-58
2023/08/22 04:23:11;;;;;;;4.93;4.20;;;;;;;17.92;100.00;99266.75;5158921;27;20078;-59
2023/08/22 04:25:37;;;;;;;5.07;3.05;;;;;;;17.95;100.00;99263.94;5159178;27;20133;-58
2023/08/22 04:28:04;;;;;;;6.53;3.45;;;;;;;17.84;100.00;99275.16;5158795;27;20043;-53
2023/08/22 04:30:30;;;;;;;3.72;2.97;;;;;;;17.97;100.00;99246.91;5159219;27;20051;-53
2023/08/22 04:32:56;;;;;;;5.55;3.33;;;;;;;18.05;100.00;99223.41;5158650;27;20459;-55
2023/08/22 04:35:23;;;;;;;5.05;3.55;;;;;;;18.13;100.00;99188.88;5159007;27;20408;-59
2023/08/22 04:37:49;;;;;;;4.82;3.25;;;;;;;18.18;100.00;99115.47;5158589;27;20305;-56
2023/08/22 04:40:15;;;;;;;10.85;4.72;;;;;;;18.25;100.00;99062.66;5158876;27;20050;-52
2023/08/22 04:42:41;;;;;;;4.78;3.55;;;;;;;18.26;100.00;99020.63;5158731;27;20137;-52
2023/08/22 04:45:07;;;;;;;6.10;3.35;;;;;;;18.14;100.00;99065.59;5158697;27;20058;-55
2023/08/22 04:47:34;;;;;;;5.32;4.22;;;;;;;18.25;100.00;99046.78;5158678;27;20159;-59
2023/08/22 04:50:00;;;;;;;7.50;3.45;;;;;;;18.29;100.00;99091.94;5158428;27;20046;-57
2023/08/22 04:52:26;;;;;;;4.78;4.15;;;;;;;18.32;100.00;99018.91;5158647;27;20074;-58
2023/08/22 04:54:52;;;;;;;6.65;3.65;;;;;;;18.29;100.00;98991.22;5158471;27;20359;-56
2023/08/22 04:57:20;;;;;;;5.75;4.35;;;;;;;18.19;100.00;98958.88;5158422;27;20092;-54
2023/08/22 04:59:46;;;;;;;5.07;3.95;;;;;;;18.38;100.00;98932.41;5158174;27;20141;-55
2023/08/22 05:02:12;;;;;;;5.22;3.20;;;;;;;18.47;100.00;98925.09;5158408;27;20153;-53
2023/08/22 05:04:38;;;;;;;4.20;3.17;;;;;;;18.60;100.00;98889.19;5158041;27;20297;-54
2023/08/22 05:07:04;;;;;;;9.85;3.20;;;;;;;18.51;100.00;98886.19;5158573;27;20055;-53
2023/08/22 05:09:30;;;;;;;3.10;2.70;;;;;;;18.59;100.00;98898.69;5157688;27;20051;-53
2023/08/22 05:11:56;;;;;;;3.05;2.75;;;;;;;18.85;100.00;98880.38;5158077;27;20470;-56
2023/08/22 05:14:22;;;;;;;4.25;3.40;;;;;;;19.01;100.00;98740.78;5158220;27;20183;-56
2023/08/22 05:16:48;;;;;;;3.10;2.67;;;;;;;19.04;100.00;98682.34;5157796;27;20103;-59
2023/08/22 05:19:14;;;;;;;6.22;3.00;;;;;;;19.93;100.00;98431.72;5158141;27;20405;-59
2023/08/22 05:21:41;;;;;;;4.32;3.67;;;;;;;20.45;100.00;98184.63;5136972;28;20051;-55
2023/08/22 05:24:07;;;;;;;6.20;2.90;;;;;;;20.29;100.00;98134.75;5137330;28;20474;-55
2023/08/22 05:26:33;;;;;;;5.90;2.97;;;;;;;20.19;100.00;98162.53;5137101;28;20191;-58
2023/08/22 05:28:59;;;;;;;5.05;2.65;;;;;;;20.34;100.00;98201.72;5137406;28;20082;-59
2023/08/22 05:31:26;;;;;;;4.22;3.53;;;;;;;20.74;100.00;98128.66;5136985;28;20051;-56
2023/08/22 05:33:52;;;;;;;4.55;3.03;;;;;;;20.76;100.00;98078.84;5137326;28;20047;-54
2023/08/22 05:36:18;;;;;;;3.53;3.20;;;;;;;21.38;100.00;98072.28;5136961;28;20420;-55
2023/08/22 05:38:44;;;;;;;2.58;2.38;;;;;;;21.72;100.00;98101.84;5137347;28;20058;-57
2023/08/22 05:41:10;;;;;;;2.70;2.47;;;;;;;21.74;100.00;98137.66;5136844;28;20079;-57
2023/08/22 05:43:36;;;;;;;4.68;2.65;;;;;;;21.45;100.00;98124.19;5136969;28;20195;-58
2023/08/22 05:46:02;;;;;;;3.92;2.55;;;;;;;21.71;100.00;98121.88;5136915;28;20427;-55
2023/08/22 05:48:28;;;;;;;5.75;2.55;;;;;;;21.47;100.00;98135.66;5137256;28;20082;-53
2023/08/22 05:50:54;;;;;;;5.50;2.65;;;;;;;21.00;100.00;98131.97;5136923;28;20057;-53
2023/08/22 05:53:20;;;;;;;3.35;2.40;;;;;;;20.80;100.00;98087.06;5136930;28;20172;-56
2023/08/22 05:55:46;;;;;;;10.02;2.78;;;;;;;20.73;100.00;98087.34;5137142;28;20051;-58
2023/08/22 05:58:12;;;;;;;6.53;2.40;;;;;;;20.44;100.00;98091.22;5136763;28;20061;-53
2023/08/22 06:00:38;;;;;;;4.45;2.50;;;;;;;20.45;100.00;98095.53;5137027;28;20051;-55
2023/08/22 06:03:04;;;;;;;8.80;2.83;;;;;;;20.28;100.00;98102.59;5136589;28;20134;-58
2023/08/22 06:05:30;;;;;;;4.22;2.13;;;;;;;20.14;100.00;98104.69;5136958;28;20408;-59
2023/08/22 06:07:56;;;;;;;10.18;2.63;;;;;;;20.10;100.00;98122.75;5136446;28;20112;-53
2023/08/22 06:10:23;;;;;;;3.83;2.65;;;;;;;19.77;100.00;98116.81;5136927;28;20523;-52
2023/08/22 06:12:50;;;;;;;4.57;2.75;;;;;;;19.84;100.00;98147.91;5136647;28;20059;-56
2023/08/22 06:15:16;;;;;;;10.40;3.25;;;;;;;19.79;100.00;98144.91;5136581;28;20059;-54
2023/08/22 06:17:42;;;;;;;5.00;2.67;;;;;;;19.99;100.00;98134.25;5136433;28;20054;-59
2023/08/22 06:20:08;;;;;;;5.78;2.85;;;;;;;20.15;100.00;98122.16;5136388;28;20092;-59
2023/08/22 06:22:34;;;;;;;9.20;2.63;;;;;;;20.08;100.00;98114.84;5137880;27;20055;-59
2023/08/22 06:25:04;;;;;;;2.85;2.55;;;;;;;20.16;100.00;98091.09;5140016;28;20142;-55
2023/08/22 06:27:30;;;;;;;3.97;2.92;;;;;;;20.38;100.00;98096.59;5140404;28;20055;-55
2023/08/22 06:29:57;;;;;;;2.35;2.05;;;;;;;21.09;100.00;98137.59;5139822;28;20055;-54
2023/08/22 06:32:23;;;;;;;5.38;2.80;;;;;;;20.92;100.00;98153.00;5140311;28;20391;-55
2023/08/22 06:34:49;;;;;;;4.28;2.63;;;;;;;21.10;100.00;98155.06;5139660;28;20054;-54
2023/08/22 06:37:15;;;;;;;10.57;2.45;;;;;;;21.23;100.00;98172.44;5139933;28;20138;-58
2023/08/22 06:39:41;;;;;;;9.23;2.30;;;;;;;21.85;100.00;98243.97;5139897;28;20461;-60
2023/08/22 06:42:07;;;;;;;10.50;3.22;;;;;;;22.08;100.00;98290.06;5139386;28;20475;-61
2023/08/22 06:44:33;;;;;;;6.47;3.70;;;;;;;22.83;100.00;98429.28;5139696;28;20051;-60
2023/08/22 06:46:59;;;;;;;5.03;2.03;;;;;;;23.88;100.00;98582.91;5139488;28;20508;-57
2023/08/22 06:49:25;;;;;;;6.82;1.92;;;;;;;24.48;100.00;98646.56;5139681;28;20393;-57
2023/08/22 06:51:51;;;;;;;5.40;1.98;;;;;;;24.96;100.00;98696.34;5139406;28;20086;-56
2023/08/22 06:54:17;;;;;;;1.77;1.67;;;;;;;25.86;100.00;98746.06;5139745;28;20137;-56
2023/08/22 06:56:43;;;;;;;8.10;2.00;;;;;;;25.67;100.00;98784.72;5139170;28;20130;-57
2023/08/22 06:59:09;;;;;;;5.00;2.40;;;;;;;25.85;100.00;98787.41;5139540;28;20051;-55
2023/08/22 07:01:35;;;;;;;7.50;2.63;;;;;;;26.22;100.00;98790.72;5139164;28;20043;-58
2023/08/22 07:04:01;;;;;;;3.22;2.10;;;;;;;25.83;100.00;98811.63;5139659;28;20062;-56
2023/08/22 07:06:28;;;;;;;4.55;2.00;;;;;;;26.59;100.00;98829.00;5138990;28;20047;-56
2023/08/22 07:08:54;;;;;;;3.10;2.17;;;;;;;26.75;100.00;98829.31;5139036;28;20337;-58
2023/08/22 07:11:19;;;;;;;3.40;1.67;;;;;;;26.17;100.00;98841.19;5139018;28;20063;-60
2023/08/22 07:13:45;;;;;;;5.22;2.20;;;;;;;25.66;100.00;98814.00;5139191;28;20055;-60
2023/08/22 07:16:11;;;;;;;8.48;2.15;;;;;;;25.30;100.00;98810.16;5139435;28;20050;-60
2023/08/22 07:18:37;;;;;;;8.38;2.58;;;;;;;24.36;100.00;98756.78;5139047;28;20057;-59
2023/08/22 07:21:05;;;;;;;2.25;1.80;;;;;;;23.84;100.00;98725.81;5139111;28;20151;-53
2023/08/22 07:23:30;;;;;;;4.15;2.05;;;;;;;23.92;100.00;98713.06;5138961;28;20055;-56
2023/08/22 07:25:56;;;;;;;6.97;2.40;;;;;;;22.62;100.00;98620.16;5139138;28;20130;-56
2023/08/22 07:28:22;;;;;;;1.77;1.67;;;;;;;23.35;100.00;98636.38;5138765;28;20179;-54
2023/08/22 07:30:48;;;;;;;5.57;2.00;;;;;;;23.47;100.00;98705.38;5139316;28;20107;-56
2023/08/22 07:33:14;;;;;;;2.60;2.15;;;;;;;22.96;100.00;98689.13;5138241;27;20054;-58
2023/08/22 07:35:41;;;;;;;7.13;2.45;;;;;;;22.27;100.00;98626.69;5138464;28;20043;-60
2023/08/22 07:38:08;;;;;;;7.30;1.83;;;;;;;22.30;100.00;98619.41;5138406;28;20136;-56
2023/08/22 07:40:37;;;;;;;2.63;1.98;;;;;;;21.43;100.00;98604.25;5138589;28;20051;-58
2023/08/22 07:43:04;;;;;;;3.35;2.00;;;;;;;21.18;100.00;98556.91;5138812;28;20061;-60
2023/08/22 07:45:30;;;;;;;8.90;2.22;;;;;;;21.52;100.00;98554.09;5138787;28;20051;-57
2023/08/22 07:47:56;;;;;;;4.70;2.00;;;;;;;21.50;100.00;98556.56;5138957;28;20047;-57
2023/08/22 07:50:21;;;;;;;4.53;1.80;;;;;;;21.66;100.00;98577.13;5138349;28;20051;-58
2023/08/22 07:52:47;;;;;;;21.17;3.67;;;;;;;21.85;100.00;98565.63;5138619;28;20046;-58
2023/08/22 07:55:14;;;;;;;4.80;2.50;;;;;;;21.40;100.00;98515.91;5138437;28;20054;-58
2023/08/22 07:57:41;;;;;;;8.15;2.25;;;;;;;21.38;100.00;98504.44;5138660;28;20095;-54
2023/08/22 08:00:09;;;;;;;2.83;2.47;;;;;;;21.27;100.00;98445.47;5138398;28;20051;-59
2023/08/22 08:02:35;;;;;;;4.93;2.47;;;;;;;21.48;100.00;98443.91;5138333;28;20055;-55
2023/08/22 08:05:01;;;;;;;8.48;1.92;;;;;;;21.60;100.00;98418.75;5138121;28;20081;-54
2023/08/22 08:07:27;;;;;;;4.00;2.25;;;;;;;21.80;100.00;98474.16;5138497;28;20142;-56
2023/08/22 08:09:53;;;;;;;2.65;2.10;;;;;;;21.77;100.00;98505.75;5138566;28;20130;-57
2023/08/22 08:12:20;;;;;;;5.07;1.98;;;;;;;21.79;100.00;98561.09;5138281;28;20057;-58
2023/08/22 08:14:46;;;;;;;5.45;2.17;;;;;;;21.70;100.00;98620.41;5138263;28;20199;-59
2023/08/22 08:17:12;;;;;;;4.55;2.20;;;;;;;21.53;100.00;98594.72;5138046;28;20054;-53
2023/08/22 08:19:39;;;;;;;4.13;3.08;;;;;;;21.63;100.00;98550.16;5138006;28;20058;-56
2023/08/22 08:22:05;;;;;;;2.30;2.05;;;;;;;21.49;100.00;98566.19;5137696;28;20066;-54
2023/08/22 08:24:31;;;;;;;4.10;2.10;;;;;;;21.58;100.00;98559.88;5138355;28;20051;-59
2023/08/22 08:26:56;;;;;;;9.18;2.20;;;;;;;22.04;100.00;98566.50;5138024;28;20111;-59
2023/08/22 08:29:23;;;;;;;5.28;2.90;;;;;;;21.96;100.00;98637.81;5138301;28;20137;-58
2023/08/22 08:31:49;;;;;;;9.45;2.40;;;;;;;21.72;100.00;98636.69;5137834;28;20084;-59
2023/08/22 08:34:15;;;;;;;5.93;2.67;;;;;;;21.51;100.00;98633.41;5138351;28;20487;-59
2023/08/22 08:36:41;;;;;;;5.00;1.92;;;;;;;21.50;100.00;98620.72;5137793;28;20054;-56
2023/08/22 08:39:07;;;;;;;4.82;2.58;;;;;;;21.37;100.00;98601.25;5137824;28;20054;-54
2023/08/22 08:41:34;;;;;;;3.58;2.10;;;;;;;21.91;100.00;98613.25;5137893;28;20073;-51
2023/08/22 08:44:01;;;;;;;7.25;2.00;;;;;;;22.36;100.00;98637.13;5137803;28;20393;-60
2023/08/22 08:46:29;;;;;;;2.40;1.65;;;;;;;22.43;100.00;98689.91;5137199;27;20161;-53
2023/08/22 08:48:56;;;;;;;3.00;1.75;;;;;;;22.61;100.00;98749.91;5137715;28;20070;-58
2023/08/22 08:51:23;;;;;;;5.65;2.53;;;;;;;22.44;100.00;98750.13;5137858;28;20361;-55
2023/08/22 08:53:50;;;;;;;2.50;1.80;;;;;;;22.55;100.00;98753.28;5137548;28;20158;-56
2023/08/22 08:56:16;;;;;;;5.82;2.20;;;;;;;22.52;100.00;98731.06;5137950;28;20094;-55
2023/08/22 08:58:44;;;;;;;3.55;1.63;;;;;;;22.32;100.00;98737.00;5137430;28;20393;-63
2023/08/22 09:01:11;;;;;;;2.70;2.00;;;;;;;22.38;100.00;98731.63;5137741;28;20079;-58
2023/08/22 09:03:38;;;;;;;6.57;1.90;;;;;;;22.34;100.00;98717.00;5137232;28;20185;-62
2023/08/22 09:06:04;;;;;;;3.15;2.05;;;;;;;22.46;100.00;98710.56;5137511;28;20043;-59
2023/08/22 09:08:30;;;;;;;11.05;2.42;;;;;;;22.12;100.00;98664.72;5137399;28;20462;-56
2023/08/22 09:10:56;;;;;;;4.97;2.20;;;;;;;22.43;100.00;98655.63;5137186;28;20163;-61
2023/08/22 09:13:26;;;;;;;6.15;2.13;;;;;;;22.53;100.00;98687.97;5137420;28;20082;-59
2023/08/22 09:15:57;;;;;;;3.80;2.30;;;;;;;23.56;100.00;98750.19;5137289;28;20070;-57
2023/08/22 09:18:23;;;;;;;3.88;2.13;;;;;;;23.70;100.00;98799.19;5137382;28;20373;-55
2023/08/22 09:20:49;;;;;;;5.28;2.20;;;;;;;24.65;100.00;98826.34;5137188;28;20047;-53
2023/08/22 09:23:27;;;;;;;7.28;2.20;;;;;;;25.66;100.00;98840.09;5137405;28;20454;-54
2023/08/22 09:25:54;;;;;;;5.95;1.88;;;;;;;26.39;100.00;98866.16;5137052;28;20050;-52
2023/08/22 09:28:20;;;;;;;5.70;2.00;;;;;;;26.21;100.00;98876.28;5137239;28;20103;-59
2023/08/22 09:30:50;;;;;;;9.88;1.92;;;;;;;26.58;100.00;98890.06;5136843;28;20055;-56
2023/08/22 09:33:17;;;;;;;2.35;2.00;;;;;;;26.34;100.00;98864.78;5137052;28;20050;-61
2023/08/22 09:35:43;;;;;;;4.35;2.10;;;;;;;25.83;100.00;98848.13;5137201;28;20138;-57
2023/08/22 09:38:10;;;;;;;3.80;2.28;;;;;;;26.47;100.00;98862.53;5137016;28;20051;-60
2023/08/22 09:40:49;;;;;;;3.65;2.25;;;;;;;26.64;100.00;98890.97;5137100;28;20051;-54
2023/08/22 09:43:15;;;;;;;3.22;2.08;;;;;;;26.50;100.00;98891.72;5136757;28;20413;-55
2023/08/22 09:45:43;;;;;;;2.20;1.88;;;;;;;26.69;100.00;98878.25;5137136;28;20417;-54
2023/08/22 09:48:14;;;;;;;4.93;2.13;;;;;;;26.79;100.00;98910.69;5136770;28;20046;-56
2023/08/22 09:50:43;;;;;;;4.45;2.05;;;;;;;26.03;100.00;98896.84;5137082;28;20047;-58
2023/08/22 09:53:11;;;;;;;6.95;1.92;;;;;;;25.97;100.00;98887.50;5136648;28;20134;-55
2023/08/22 09:55:38;;;;;;;3.70;1.95;;;;;;;25.91;100.00;98888.63;5136309;28;20485;-55
2023/08/22 09:58:05;;;;;;;5.55;1.83;;;;;;;26.02;100.00;98889.69;5140273;27;20476;-53
2023/08/22 10:00:32;;;;;;;2.40;1.42;;;;;;;26.43;100.00;98886.44;5140317;28;20126;-57
2023/08/22 10:03:02;;;;;;;6.57;1.55;;;;;;;26.33;100.00;98882.91;5140544;28;20079;-56
2023/08/22 10:05:30;;;;;;;4.78;1.42;;;;;;;26.36;100.00;98884.78;5140328;28;20130;-57
2023/08/22 10:07:56;;;;;;;6.07;2.95;;;;;;;26.57;100.00;98890.56;5140600;28;20338;-57
2023/08/22 10:10:24;;;;;;;3.85;1.63;;;;;;;26.88;100.00;98890.13;5140070;28;20053;-52
2023/08/22 10:12:51;;;;;;;4.85;1.75;;;;;;;26.18;100.00;98902.50;5140005;28;20058;-51
2023/08/22 10:15:17;;;;;;;3.95;1.60;;;;;;;25.85;100.00;98896.16;5140177;28;20331;-57
2023/08/22 10:17:44;;;;;;;7.10;1.67;;;;;;;25.72;100.00;98896.34;5140670;28;20047;-58
2023/08/22 10:20:12;;;;;;;2.88;1.30;;;;;;;25.32;100.00;98887.00;5139832;28;20387;-50
2023/08/22 10:22:38;;;;;;;2.97;1.48;;;;;;;25.16;100.00;98903.38;5140044;28;20051;-54
2023/08/22 10:25:05;;;;;;;6.00;1.70;;;;;;;25.52;100.00;98886.44;5139794;28;20063;-52
2023/08/22 10:27:33;;;;;;;4.40;1.48;;;;;;;26.24;100.00;98903.41;5139990;28;20141;-62
2023/08/22 10:30:19;;;;;;;15.45;1.90;;;;;;;26.17;100.00;98923.44;5140041;28;20042;-57
2023/08/22 10:33:03;;;;;;;7.93;2.63;;;;;;;26.18;100.00;98913.75;5139730;28;20058;-57
2023/08/22 10:35:28;;;;;;;4.22;1.50;;;;;;;25.62;100.00;98904.00;5140128;28;20188;-60
2023/08/22 10:37:56;;;;;;;3.08;1.88;;;;;;;25.80;100.00;98903.22;5139618;28;20367;-60
2023/08/22 10:40:30;;;;;;;4.03;1.88;;;;;;;26.27;100.00;98902.47;5140074;28;20424;-58
2023/08/22 10:43:08;;;;;;;3.55;2.03;;;;;;;26.49;100.00;98902.19;5139696;28;20322;-54
2023/08/22 10:45:39;;;;;;;3.22;1.45;;;;;;;25.87;100.00;98902.09;5139664;28;20146;-58
2023/08/22 10:48:09;;;;;;;8.02;2.20;;;;;;;25.62;100.00;98900.44;5139618;28;20134;-59
2023/08/22 10:50:35;;;;;;;5.53;1.60;;;;;;;25.57;100.00;98887.84;5139358;28;20203;-55
2023/08/22 10:53:18;;;;;;;6.45;2.58;;;;;;;25.69;100.00;98864.41;5139733;28;20051;-58
2023/08/22 10:55:44;;;;;;;9.93;1.80;;;;;;;25.31;100.00;98882.63;5139435;28;20047;-60
2023/08/22 10:58:42;;;;;;;4.22;1.67;;;;;;;24.91;100.00;98882.84;5139709;28;20313;-55
2023/08/22 11:01:11;;;;;;;8.30;1.92;;;;;;;25.07;100.00;98876.13;5139089;28;20047;-60
2023/08/22 11:03:37;;;;;;;4.57;1.80;;;;;;;25.26;100.00;98882.50;5139192;28;20150;-60
2023/08/22 11:06:15;;;;;;;3.05;2.15;;;;;;;25.26;100.00;98866.44;5139065;28;20047;-56
2023/08/22 11:08:42;;;;;;;13.75;3.20;;;;;;;25.54;100.00;98871.94;5138530;27;20062;-57
2023/08/22 11:11:09;;;;;;;3.13;1.60;;;;;;;25.26;100.00;98876.88;5139525;28;20055;-57
2023/08/22 11:13:37;;;;;;;5.53;2.03;;;;;;;25.71;100.00;98873.09;5138962;28;20484;-60
2023/08/22 11:16:08;;;;;;;5.10;1.83;;;;;;;25.58;100.00;98878.16;5139498;28;20062;-57
2023/08/22 11:18:34;;;;;;;5.22;1.80;;;;;;;25.75;100.00;98853.28;5138879;28;20051;-58
2023/08/22 11:21:00;;;;;;;4.00;1.45;;;;;;;25.48;100.00;98877.41;5138908;28;20096;-59
2023/08/22 11:23:26;;;;;;;2.92;1.30;;;;;;;25.33;100.00;98880.13;5138897;28;20059;-53